Flight Track Log - Related Links

Times and Time Zones

All times are in EDT time to prevent confusion due to time zone crossing. See the AAL1278 flight status page for this flight to view local times or setup timezone preferences in your user account.

Time Position Orientation Groundspeed Altitude Reporting Facility
EDT Latitude Longitude Course Direction KTS MPH feet Rate Location/Type
Tue 07:28:17 PM 33.9070 -118.4890 231° Southwest 230 265 2,700  Level FlightAware ADS-B
Tue 07:28:47 PM 33.8860 -118.5190 230° Southwest 253 291 3,700 2,200 Climbing FlightAware ADS-B
Tue 07:29:17 PM 33.8590 -118.5520 225° Southwest 273 314 4,900 2,280 Climbing FlightAware ADS-B
Tue 07:29:37 PM 33.8360 -118.5570 190° South 278 320 5,600 2,550 Climbing FlightAware ADS-B
Tue 07:29:57 PM 33.8090 -118.5510 170° South 282 325 6,600 2,800 Climbing FlightAware ADS-B
Tue 07:30:22 PM 33.7770 -118.5420 167° South 289 333 7,700 3,055 Climbing FlightAware ADS-B
Tue 07:30:52 PM 33.7350 -118.5310 168° South 291 335 9,400 3,000 Climbing FlightAware ADS-B
Tue 07:31:22 PM 33.7000 -118.5070 150° Southeast 309 356 10,700 2,400 Climbing FlightAware ADS-B
Tue 07:31:47 PM 33.6820 -118.4700 120° Southeast 331 381 11,600 2,400 Climbing FlightAware ADS-B
Tue 07:32:32 PM 33.6580 -118.3890 110° East 356 410 13,500 2,682 Climbing FlightAware ADS-B
Tue 07:33:12 PM 33.6450 -118.3050 101° East 372 428 15,400 2,753 Climbing FlightAware ADS-B
Tue 07:33:57 PM 33.6440 -118.2140 91° East 387 445 17,400 2,400 Climbing FlightAware ADS-B
Tue 07:34:27 PM 33.6450 -118.1520 89° East 404 465 18,400 1,950 Climbing FlightAware ADS-B
Tue 07:35:17 PM 33.6440 -118.0290 91° East 437 503 20,000 1,895 Climbing FlightAware ADS-B
Tue 07:36:02 PM 33.6440 -117.9150 90° East 460 529 21,400 1,906 Climbing FlightAware ADS-B
Tue 07:36:42 PM 33.6440 -117.8110 90° East 475 547 22,700 1,976 Climbing FlightAware ADS-B
Tue 07:37:27 PM 33.6440 -117.6940 90° East 487 560 24,200 1,835 Climbing FlightAware ADS-B
Tue 07:38:07 PM 33.6430 -117.5850 91° East 500 575 25,300 1,425 Climbing FlightAware ADS-B
Tue 07:38:47 PM 33.6430 -117.4700 90° East 522 601 26,100 1,129 Climbing FlightAware ADS-B
Tue 07:39:32 PM 33.6450 -117.3390 89° East 540 621 26,900 1,412 Climbing FlightAware ADS-B
Tue 07:40:12 PM 33.6650 -117.2190 79° East 544 626 28,100 2,047 Climbing FlightAware ADS-B
Tue 07:40:57 PM 33.6890 -117.0860 78° East 538 619 29,800 2,047 Climbing FlightAware ADS-B
Tue 07:41:37 PM 33.7100 -116.9710 78° East 537 618 31,000 1,800 Climbing FlightAware ADS-B
Tue 07:42:17 PM 33.7310 -116.8540 78° East 534 615 32,200 1,765 Climbing FlightAware ADS-B
Tue 07:43:02 PM 33.7540 -116.7270 78° East 528 608 33,500 1,835 Climbing FlightAware ADS-B
Tue 07:43:42 PM 33.7740 -116.6150 78° East 520 598 34,800 1,389 Climbing FlightAware ADS-B
Tue 07:44:37 PM 33.8010 -116.4640 78° East 516 594 35,700 1,467 Climbing FlightAware ADS-B
Tue 07:45:12 PM 33.8170 -116.3700 78° East 503 579 37,000 1,553 Climbing FlightAware ADS-B
Tue 07:46:02 PM 33.8430 -116.2260 78° East 503 579 37,900 1,133 Climbing FlightAware ADS-B
Tue 07:46:42 PM 33.8610 -116.1200 78° East 498 573 38,700 825 Climbing FlightAware ADS-B
Tue 07:47:22 PM 33.8800 -116.0090 78° East 502 578 39,000 212 Climbing FlightAware ADS-B
Tue 07:48:07 PM 33.9020 -115.8840 78° East 505 581 39,000  Level FlightAware ADS-B
Tue 07:48:52 PM 33.9220 -115.7650 79° East 506 582 39,000  Level FlightAware ADS-B
Tue 07:49:27 PM 33.9400 -115.6610 78° East 507 583 39,000  Level FlightAware ADS-B
Tue 07:50:12 PM 33.9590 -115.5530 78° East 507 583 39,000  Level FlightAware ADS-B
Tue 07:50:57 PM 33.9810 -115.4170 79° East 507 583 39,000  Level FlightAware ADS-B
Tue 07:51:52 PM 34.0060 -115.2720 78° East 507 583 39,000  Level FlightAware ADS-B
Tue 07:52:32 PM 34.0230 -115.1780 78° East 507 583 39,000  Level FlightAware ADS-B
Tue 07:53:12 PM 34.0390 -115.0840 78° East 507 583 39,000  Level FlightAware ADS-B
Tue 07:53:52 PM 34.0560 -114.9900 78° East 507 583 39,000  Level FlightAware ADS-B
Tue 07:54:42 PM 34.0770 -114.8720 78° East 507 583 39,000  Level FlightAware ADS-B
Tue 07:55:17 PM 34.0950 -114.7220 82° East 39,000  Level FlightAware ADS-B
Tue 07:56:02 PM 34.1250 -114.6030 73° East 509 586 39,000  Level FlightAware ADS-B
Tue 07:56:47 PM 34.1610 -114.4750 71° East 511 588 39,000  Level FlightAware ADS-B
Tue 07:57:22 PM 34.1860 -114.3830 72° East 510 587 39,000  Level FlightAware ADS-B
Tue 07:58:12 PM 34.2320 -114.2190 71° East 509 586 39,000  Level FlightAware ADS-B
Tue 07:58:52 PM 34.2620 -114.1120 71° East 509 586 39,000  Level FlightAware ADS-B
Tue 07:59:32 PM 34.2910 -114.0070 71° East 508 585 39,000  Level FlightAware ADS-B
Tue 08:00:17 PM 34.3250 -113.8850 71° East 511 588 39,000  Level FlightAware ADS-B
Tue 08:00:57 PM 34.3550 -113.7760 72° East 510 587 39,000  Level FlightAware ADS-B
Tue 08:01:42 PM 34.3890 -113.6530 71° East 511 588 39,000  Level FlightAware ADS-B
Tue 08:02:22 PM 34.4180 -113.5460 72° East 511 588 39,000  Level FlightAware ADS-B
Tue 08:03:07 PM 34.4510 -113.4240 72° East 510 587 39,000  Level FlightAware ADS-B
Tue 08:03:47 PM 34.4810 -113.3150 72° East 512 589 39,000  Level FlightAware ADS-B
Tue 08:04:32 PM 34.5140 -113.1910 72° East 511 588 39,000  Level FlightAware ADS-B
Tue 08:05:12 PM 34.5420 -113.0850 72° East 512 589 39,000  Level FlightAware ADS-B
Tue 08:05:57 PM 34.5750 -112.9620 72° East 512 589 39,000  Level FlightAware ADS-B
Tue 08:06:37 PM 34.6040 -112.8530 72° East 511 588 39,000  Level FlightAware ADS-B
Tue 08:07:17 PM 34.6330 -112.7450 72° East 512 589 39,000  Level FlightAware ADS-B
Tue 08:08:02 PM 34.6660 -112.6190 72° East 510 587 39,000  Level FlightAware ADS-B
Tue 08:08:42 PM 34.6950 -112.5090 72° East 511 588 39,000  Level FlightAware ADS-B
Tue 08:09:27 PM 34.7250 -112.3890 73° East 508 585 39,000  Level FlightAware ADS-B
Tue 08:10:17 PM 34.7550 -112.2500 75° East 506 582 39,000  Level FlightAware ADS-B
Tue 08:11:02 PM 34.7840 -112.1250 74° East 505 581 39,000  Level FlightAware ADS-B
Tue 08:11:47 PM 34.8100 -112.0080 75° East 504 580 39,000  Level FlightAware ADS-B
Tue 08:12:22 PM 34.8330 -111.9080 74° East 502 578 39,000  Level FlightAware ADS-B
Tue 08:13:07 PM 34.8600 -111.7900 74° East 503 579 39,000  Level FlightAware ADS-B
Tue 08:13:52 PM 34.8890 -111.6630 74° East 502 578 39,000  Level FlightAware ADS-B
Tue 08:14:27 PM 34.9100 -111.5680 75° East 502 578 39,000  Level FlightAware ADS-B
Tue 08:15:17 PM 34.9390 -111.4340 75° East 501 577 39,000  Level FlightAware ADS-B
Tue 08:15:57 PM 34.9630 -111.3270 75° East 497 572 39,000  Level FlightAware ADS-B
Tue 08:16:37 PM 34.9880 -111.2170 74° East 501 577 39,000  Level FlightAware ADS-B
Tue 08:17:22 PM 35.0150 -111.0930 75° East 502 578 39,000  Level FlightAware ADS-B
Tue 08:18:02 PM 35.0380 -110.9840 76° East 500 575 39,000  Level FlightAware ADS-B
Tue 08:18:42 PM 35.0630 -110.8720 75° East 503 579 39,000  Level FlightAware ADS-B
Tue 08:19:27 PM 35.0880 -110.7550 75° East 502 578 39,000  Level FlightAware ADS-B
Tue 08:20:07 PM 35.1120 -110.6420 75° East 505 581 39,000  Level FlightAware ADS-B
Tue 08:20:52 PM 35.1390 -110.5150 75° East 507 583 39,000  Level FlightAware ADS-B
Tue 08:21:32 PM 35.1630 -110.4040 75° East 507 583 39,000  Level FlightAware ADS-B
Tue 08:22:12 PM 35.1850 -110.2970 76° East 509 586 39,000  Level FlightAware ADS-B
Tue 08:22:57 PM 35.2120 -110.1720 75° East 512 589 39,000  Level FlightAware ADS-B
Tue 08:23:37 PM 35.2350 -110.0600 76° East 511 588 39,000  Level FlightAware ADS-B
Tue 08:24:32 PM 35.2660 -109.9160 75° East 512 589 39,000  Level FlightAware ADS-B
Tue 08:25:12 PM 35.2870 -109.8200 75° East 512 589 39,000  Level FlightAware ADS-B
Tue 08:25:52 PM 35.3120 -109.6860 77° East 509 586 39,000  Level FlightAware ADS-B
Tue 08:26:37 PM 35.3380 -109.5650 75° East 509 586 39,000  Level FlightAware ADS-B
Tue 08:27:17 PM 35.3590 -109.4700 75° East 509 586 39,000  Level FlightAware ADS-B
Tue 08:28:17 PM 35.3930 -109.2890 77° East 501 577 39,000  Level FlightAware ADS-B
Tue 08:28:57 PM 35.4120 -109.1960 76° East 501 577 39,000  Level FlightAware ADS-B
Tue 08:29:42 PM 35.4420 -109.0440 76° East 502 578 39,000  Level FlightAware ADS-B
Tue 08:30:32 PM 35.4680 -108.9150 76° East 502 578 39,000  Level FlightAware ADS-B
Tue 08:31:02 PM 35.4820 -108.8450 76° East 502 578 39,000  Level FlightAware ADS-B
Tue 08:31:47 PM 35.5200 -108.7110 71° East 495 570 39,000  Level FlightAware ADS-B
Tue 08:32:22 PM 35.5470 -108.6130 71° East 491 565 39,000  Level FlightAware ADS-B
Tue 08:33:12 PM 35.5820 -108.4810 72° East 486 559 39,000  Level FlightAware ADS-B
Tue 08:33:52 PM 35.6110 -108.3750 71° East 486 559 39,000  Level FlightAware ADS-B
Tue 08:34:37 PM 35.6420 -108.2590 72° East 486 559 39,000  Level FlightAware ADS-B
Tue 08:35:17 PM 35.6690 -108.1570 72° East 485 558 39,000  Level FlightAware ADS-B
Tue 08:36:02 PM 35.7020 -108.0350 72° East 486 559 39,000  Level FlightAware ADS-B
Tue 08:36:42 PM 35.7290 -107.9330 72° East 487 560 39,000  Level FlightAware ADS-B
Tue 08:37:22 PM 35.7550 -107.8320 72° East 489 563 39,000  Level FlightAware ADS-B
Tue 08:38:07 PM 35.7880 -107.7090 72° East 490 564 39,000  Level FlightAware ADS-B
Tue 08:38:42 PM 35.8120 -107.6160 72° East 490 564 39,000  Level FlightAware ADS-B
Tue 08:39:32 PM 35.8460 -107.4830 72° East 491 565 39,000  Level FlightAware ADS-B
Tue 08:40:12 PM 35.8750 -107.3740 72° East 492 566 39,000  Level FlightAware ADS-B
Tue 08:40:52 PM 35.9020 -107.2680 73° East 491 565 39,000  Level FlightAware ADS-B
Tue 08:41:37 PM 35.9330 -107.1500 72° East 489 563 39,000  Level FlightAware ADS-B
Tue 08:42:17 PM 35.9600 -107.0430 73° East 489 563 39,000  Level FlightAware ADS-B
Tue 08:43:12 PM 35.9970 -106.8980 72° East 485 558 39,000  Level FlightAware ADS-B
Tue 08:43:52 PM 36.0250 -106.7900 72° East 473 544 39,000  Level FlightAware ADS-B
Tue 08:44:37 PM 36.0520 -106.6800 73° East 467 537 39,000  Level FlightAware ADS-B
Tue 08:45:22 PM 36.0810 -106.5640 73° East 469 540 39,000  Level FlightAware ADS-B
Tue 08:46:02 PM 36.1070 -106.4660 72° East 472 543 39,000  Level FlightAware ADS-B
Tue 08:46:57 PM 36.1420 -106.3250 73° East 477 549 39,000  Level FlightAware ADS-B
Tue 08:47:37 PM 36.1670 -106.2190 74° East 477 549 39,000  Level FlightAware ADS-B
Tue 08:48:22 PM 36.1960 -106.1110 72° East 477 549 39,000  Level FlightAware ADS-B
Tue 08:49:02 PM 36.2190 -106.0220 72° East 477 549 39,000  Level FlightAware ADS-B
Tue 08:49:42 PM 36.2420 -105.9340 72° East 477 549 39,000  Level FlightAware ADS-B
Tue 08:50:22 PM 36.2650 -105.8460 72° East 477 549 39,000  Level FlightAware ADS-B
Tue 08:51:12 PM 36.2940 -105.7350 72° East 477 549 39,000  Level FlightAware ADS-B
Tue 08:51:52 PM 36.3170 -105.6460 72° East 477 549 39,000  Level FlightAware ADS-B
Tue 08:52:32 PM 36.3410 -105.5580 71° East 477 549 39,000  Level FlightAware ADS-B
Tue 08:53:12 PM 36.3640 -105.4690 72° East 477 549 39,000  Level FlightAware ADS-B
Tue 08:53:52 PM 36.3870 -105.3800 72° East 477 549 39,000  Level FlightAware ADS-B
Tue 08:54:42 PM 36.4160 -105.2700 72° East 477 549 39,000  Level FlightAware ADS-B
Tue 08:55:22 PM 36.4390 -105.1810 72° East 477 549 39,000  Level FlightAware ADS-B
Tue 08:56:02 PM 36.4620 -105.0920 72° East 477 549 39,000  Level FlightAware ADS-B
Tue 08:56:42 PM 36.4850 -105.0040 72° East 477 549 39,000  Level FlightAware ADS-B
Tue 08:57:22 PM 36.5090 -104.9150 71° East 477 549 39,000  Level FlightAware ADS-B
Tue 08:57:48 PM 36.5725 -104.6497 71° East 473 544 39,000  Level Kansas City Center
Tue 09:03:20 PM 36.8826 -103.7910 71° East 478 550 39,000  Level FlightAware ADS-B
Tue 09:04:26 PM 36.9420 -103.6240 66° East 477 549 39,000  Level FlightAware ADS-B
Tue 09:07:15 PM 37.0919 -103.1970 66° East 482 555 39,000  Level FlightAware ADS-B
Tue 09:07:45 PM 37.1189 -103.1190 67° East 482 555 39,000  Level FlightAware ADS-B
Tue 09:08:15 PM 37.1452 -103.0430 67° East 475 547 39,000  Level FlightAware ADS-B
Tue 09:08:46 PM 37.1717 -102.9670 66° East 475 547 39,000  Level FlightAware ADS-B
Tue 09:09:16 PM 37.1980 -102.8920 66° East 475 547 39,000  Level FlightAware ADS-B
Tue 09:09:46 PM 37.2243 -102.8160 66° East 475 547 39,000  Level FlightAware ADS-B
Tue 09:10:16 PM 37.2505 -102.7390 67° East 477 549 39,000  Level FlightAware ADS-B
Tue 09:10:46 PM 37.2766 -102.6630 67° East 478 550 39,000  Level FlightAware ADS-B
Tue 09:11:16 PM 37.3029 -102.5860 67° East 477 549 39,000  Level FlightAware ADS-B
Tue 09:11:46 PM 37.3294 -102.5080 67° East 478 550 39,000  Level FlightAware ADS-B
Tue 09:12:17 PM 37.3554 -102.4320 67° East 478 550 39,000  Level FlightAware ADS-B
Tue 09:12:33 PM 37.3647 -102.4100 67° East 479 551 39,000  Level Albuquerque Center
Tue 09:13:34 PM 37.4178 -102.2483 68° East 476 548 39,000  Level Albuquerque Center
Tue 09:14:35 PM 37.4672 -102.1031 67° East 473 544 39,000  Level Albuquerque Center
Tue 09:15:37 PM 37.5233 -101.9322 67° East 472 543 39,000  Level Albuquerque Center
Tue 09:16:17 PM 37.5519 -101.8336 70° East 471 542 39,000  Level Kansas City Center
Tue 09:17:19 PM 37.5831 -101.6808 76° East 471 542 39,000  Level Kansas City Center
Tue 09:18:20 PM 37.6211 -101.5028 75° East 470 541 39,000  Level Kansas City Center
Tue 09:19:22 PM 37.6544 -101.3506 74° East 471 542 39,000  Level Kansas City Center
Tue 09:20:23 PM 37.6911 -101.1758 75° East 464 534 39,000  Level Kansas City Center
Tue 09:21:25 PM 37.7164 -101.0242 78° East 458 527 39,000  Level Kansas City Center
Tue 09:22:26 PM 37.7422 -100.8711 78° East 457 526 39,000  Level Kansas City Center
Tue 09:23:28 PM 37.7639 -100.7100 80° East 465 535 39,000 488 Level Kansas City Center
Tue 09:24:29 PM 37.7864 -100.5283 81° East 465 535 40,000 683 Climbing Kansas City Center
Tue 09:25:31 PM 37.8047 -100.3700 82° East 472 543 40,400 488 Climbing Kansas City Center
Tue 09:26:32 PM 37.8236 -100.1906 82° East 466 536 41,000 293 Climbing Kansas City Center
Tue 09:27:34 PM 37.8342 -100.0367 85° East 460 529 41,000  Level Kansas City Center
Tue 09:28:35 PM 37.8394 -99.8819 87° East 459 528 41,000  Level Kansas City Center
Tue 09:29:37 PM 37.8392 -99.7003 90° East 462 532 41,000  Level Kansas City Center
Tue 09:30:38 PM 37.8308 -99.5433 94° East 465 535 41,000  Level Kansas City Center
Tue 09:31:40 PM 37.8197 -99.3728 95° East 470 541 41,000  Level Kansas City Center
Tue 09:37:52 PM 37.8050 -98.3510 95° East 468 539 41,000  Level FlightAware ADS-B
Tue 09:38:32 PM 37.8270 -98.2390 76° East 465 535 41,000  Level FlightAware ADS-B
Tue 09:39:47 PM 37.8640 -98.0430 76° East 462 532 41,000  Level FlightAware ADS-B
Tue 09:40:17 PM 37.8800 -97.9610 76° East 461 531 41,000  Level FlightAware ADS-B
Tue 09:41:27 PM 37.9110 -97.7810 78° East 459 528 41,000  Level FlightAware ADS-B
Tue 09:42:17 PM 37.9340 -97.6510 77° East 459 528 41,000  Level FlightAware ADS-B
Tue 09:43:02 PM 37.9600 -97.5350 74° East 461 531 41,000  Level FlightAware ADS-B
Tue 09:43:37 PM 37.9790 -97.4500 74° East 461 531 41,000  Level FlightAware ADS-B
Tue 09:44:32 PM 38.0140 -97.3030 73° East 461 531 41,000  Level FlightAware ADS-B
Tue 09:45:12 PM 38.0420 -97.2000 71° East 459 528 41,000  Level FlightAware ADS-B
Tue 09:47:52 PM 38.1480 -96.8090 71° East 456 525 41,000  Level FlightAware ADS-B
Tue 09:48:32 PM 38.1770 -96.7050 70° East 456 525 41,000  Level FlightAware ADS-B
Tue 09:49:32 PM 38.1800 -96.7150 291° West 461 531 41,000  Level FlightAware ADS-B
Tue 09:50:12 PM 38.2130 -96.6330 63° Northeast 461 531 41,000  Level FlightAware ADS-B
Tue 09:50:52 PM 38.2460 -96.5510 63° Northeast 461 531 41,000  Level FlightAware ADS-B
Tue 09:51:42 PM 38.2870 -96.4480 63° Northeast 461 531 41,000  Level FlightAware ADS-B
Tue 09:52:22 PM 38.3200 -96.3660 63° Northeast 461 531 41,000  Level FlightAware ADS-B
Tue 09:53:02 PM 38.3530 -96.2830 63° Northeast 461 531 41,000  Level FlightAware ADS-B
Tue 09:54:57 PM 38.5680 -95.8900 55° Northeast 460 529 41,000  Level FlightAware ADS-B
Tue 09:55:32 PM 38.5970 -95.8310 58° Northeast 459 528 41,000  Level FlightAware ADS-B
Tue 09:56:12 PM 38.6460 -95.7320 58° Northeast 457 526 41,000  Level FlightAware ADS-B
Tue 09:57:02 PM 38.7060 -95.6120 57° Northeast 454 522 41,000  Level FlightAware ADS-B
Tue 09:57:42 PM 38.7550 -95.5140 57° Northeast 453 521 41,000  Level FlightAware ADS-B
Tue 09:58:27 PM 38.8060 -95.4090 58° Northeast 450 518 41,000  Level FlightAware ADS-B
Tue 09:59:02 PM 38.8400 -95.3400 58° Northeast 448 516 41,000  Level FlightAware ADS-B
Tue 10:00:17 PM 38.9200 -95.1780 58° Northeast 447 514 41,000  Level FlightAware ADS-B
Tue 10:00:52 PM 38.9570 -95.1020 58° Northeast 446 513 41,000  Level FlightAware ADS-B
Tue 10:01:57 PM 39.0350 -94.9410 58° Northeast 446 513 41,000  Level FlightAware ADS-B
Tue 10:02:37 PM 39.0780 -94.8530 58° Northeast 447 514 41,000  Level FlightAware ADS-B
Tue 10:03:32 PM 39.1320 -94.7400 58° Northeast 448 516 41,000  Level FlightAware ADS-B
Tue 10:04:42 PM 39.2070 -94.5880 57° Northeast 450 518 41,000  Level FlightAware ADS-B
Tue 10:05:42 PM 39.2560 -94.4850 58° Northeast 452 520 41,000  Level FlightAware ADS-B
Tue 10:06:22 PM 39.3660 -94.2530 58° Northeast 456 525 41,000  Level FlightAware ADS-B
Tue 10:07:07 PM 39.4150 -94.1490 59° Northeast 456 525 41,000  Level FlightAware ADS-B
Tue 10:07:47 PM 39.4610 -94.0520 58° Northeast 457 526 41,000  Level FlightAware ADS-B
Tue 10:08:27 PM 39.5050 -93.9590 58° Northeast 458 527 41,000  Level FlightAware ADS-B
Tue 10:09:12 PM 39.5510 -93.8530 61° Northeast 459 528 41,000  Level FlightAware ADS-B
Tue 10:09:52 PM 39.5910 -93.7570 62° Northeast 460 529 41,000  Level FlightAware ADS-B
Tue 10:10:37 PM 39.6370 -93.6460 62° Northeast 460 529 41,000  Level FlightAware ADS-B
Tue 10:11:17 PM 39.6790 -93.5480 61° Northeast 461 531 41,000  Level FlightAware ADS-B
Tue 10:12:02 PM 39.7240 -93.4430 61° Northeast 459 528 41,000  Level FlightAware ADS-B
Tue 10:12:42 PM 39.7650 -93.3450 61° Northeast 457 526 41,000  Level FlightAware ADS-B
Tue 10:13:22 PM 39.8040 -93.2510 62° Northeast 458 527 41,000  Level FlightAware ADS-B
Tue 10:14:02 PM 39.8450 -93.1530 61° Northeast 458 527 41,000  Level FlightAware ADS-B
Tue 10:14:47 PM 39.8920 -93.0400 62° Northeast 458 527 41,000  Level FlightAware ADS-B
Tue 10:15:32 PM 39.9360 -92.9350 61° Northeast 457 526 41,000  Level FlightAware ADS-B
Tue 10:16:12 PM 39.9760 -92.8390 61° Northeast 455 524 41,000  Level FlightAware ADS-B
Tue 10:16:42 PM 40.0040 -92.7690 62° Northeast 454 522 41,000  Level FlightAware ADS-B
Tue 10:17:37 PM 40.0600 -92.6330 62° Northeast 453 521 41,000  Level FlightAware ADS-B
Tue 10:18:17 PM 40.0980 -92.5390 62° Northeast 450 518 41,000  Level FlightAware ADS-B
Tue 10:19:02 PM 40.1420 -92.4330 61° Northeast 449 517 41,000  Level FlightAware ADS-B
Tue 10:19:42 PM 40.1820 -92.3340 62° Northeast 448 516 41,000  Level FlightAware ADS-B
Tue 10:20:22 PM 40.2200 -92.2400 62° Northeast 447 514 41,000  Level FlightAware ADS-B
Tue 10:21:07 PM 40.2650 -92.1280 62° Northeast 447 514 41,000  Level FlightAware ADS-B
Tue 10:21:47 PM 40.3030 -92.0350 62° Northeast 449 517 41,000  Level FlightAware ADS-B
Tue 10:22:27 PM 40.3410 -91.9380 63° Northeast 449 517 41,000 -141 Level FlightAware ADS-B
Tue 10:23:12 PM 40.3830 -91.8330 62° Northeast 430 495 40,800 -1,271 Descending FlightAware ADS-B
Tue 10:23:52 PM 40.4210 -91.7390 62° Northeast 430 495 39,200 -2,329 Descending FlightAware ADS-B
Tue 10:24:37 PM 40.4610 -91.6370 63° Northeast 432 497 37,500 -2,329 Descending FlightAware ADS-B
Tue 10:25:17 PM 40.4980 -91.5440 62° Northeast 429 494 35,900 -2,612 Descending FlightAware ADS-B
Tue 10:26:02 PM 40.5390 -91.4400 63° Northeast 435 501 33,800 -2,047 Descending FlightAware ADS-B
Tue 10:26:42 PM 40.5750 -91.3420 64° Northeast 439 505 33,000 -640 Descending FlightAware ADS-B
Tue 10:27:17 PM 40.6040 -91.2570 66° East 428 493 33,000  Level FlightAware ADS-B
Tue 10:28:07 PM 40.6450 -91.1380 66° East 437 503 33,000  Level FlightAware ADS-B
Tue 10:28:37 PM 40.6680 -91.0710 66° East 436 502 33,000  Level FlightAware ADS-B
Tue 10:29:32 PM 40.7150 -90.9320 66° East 437 503 33,000  Level FlightAware ADS-B
Tue 10:30:12 PM 40.7460 -90.8390 66° East 437 503 33,000  Level FlightAware ADS-B
Tue 10:30:52 PM 40.7790 -90.7400 66° East 438 504 33,000  Level FlightAware ADS-B
Tue 10:31:37 PM 40.8180 -90.6240 66° East 438 504 33,000  Level FlightAware ADS-B
Tue 10:32:17 PM 40.8500 -90.5310 66° East 438 504 33,000  Level FlightAware ADS-B
Tue 10:32:47 PM 40.8740 -90.4570 67° East 437 503 33,000  Level FlightAware ADS-B
Tue 10:33:27 PM 40.9080 -90.3560 66° East 438 504 33,000  Level FlightAware ADS-B
Tue 10:34:12 PM 40.9440 -90.2490 66° East 438 504 33,000  Level FlightAware ADS-B
Tue 10:34:52 PM 40.9750 -90.1540 67° East 438 504 33,000 -353 Level FlightAware ADS-B
Tue 10:35:37 PM 41.0120 -90.0400 67° East 435 501 32,500 -1,835 Descending FlightAware ADS-B
Tue 10:36:17 PM 41.0440 -89.9430 66° East 439 505 30,400 -3,150 Descending FlightAware ADS-B
Tue 10:36:57 PM 41.0770 -89.8410 67° East 439 505 28,300 -2,753 Descending FlightAware ADS-B
Tue 10:37:42 PM 41.1120 -89.7340 67° East 428 493 26,500 -2,400 Descending FlightAware ADS-B
Tue 10:38:22 PM 41.1430 -89.6400 66° East 416 479 24,900 -2,329 Descending FlightAware ADS-B
Tue 10:39:07 PM 41.1810 -89.5350 64° Northeast 403 464 23,200 -2,047 Descending FlightAware ADS-B
Tue 10:39:47 PM 41.2150 -89.4520 61° Northeast 400 460 22,000 -1,950 Descending FlightAware ADS-B
Tue 10:40:27 PM 41.2510 -89.3620 62° Northeast 395 455 20,600 -1,906 Descending FlightAware ADS-B
Tue 10:41:12 PM 41.2890 -89.2690 61° Northeast 386 444 19,300 -1,835 Descending FlightAware ADS-B
Tue 10:41:52 PM 41.3220 -89.1850 62° Northeast 380 437 18,000 -1,875 Descending FlightAware ADS-B
Tue 10:42:32 PM 41.3540 -89.1050 62° Northeast 374 430 16,800 -1,835 Descending FlightAware ADS-B
Tue 10:43:17 PM 41.3920 -89.0110 62° Northeast 369 425 15,400 -1,835 Descending FlightAware ADS-B
Tue 10:43:57 PM 41.4230 -88.9330 62° Northeast 357 411 14,200 -1,694 Descending FlightAware ADS-B
Tue 10:44:42 PM 41.4570 -88.8480 62° Northeast 347 399 13,000 -1,624 Descending FlightAware ADS-B
Tue 10:45:22 PM 41.4860 -88.7730 63° Northeast 338 389 11,900 -1,482 Descending FlightAware ADS-B
Tue 10:46:07 PM 41.5190 -88.6900 62° Northeast 332 382 10,900 -706 Descending FlightAware ADS-B
Tue 10:46:47 PM 41.5480 -88.6170 62° Northeast 331 381 10,900  Level FlightAware ADS-B
Tue 10:47:27 PM 41.5750 -88.5480 62° Northeast 321 369 10,900 -353 Level FlightAware ADS-B
Tue 10:48:12 PM 41.6060 -88.4740 61° Northeast 290 334 10,400 -960 Descending FlightAware ADS-B
Tue 10:48:42 PM 41.6290 -88.4320 54° Northeast 284 327 9,700 -1,500 Descending FlightAware ADS-B
Tue 10:48:52 PM 41.6380 -88.4180 49° Northeast 282 325 9,400 -1,650 Descending FlightAware ADS-B
Tue 10:49:22 PM 41.6620 -88.3760 53° Northeast 280 322 8,600 -1,527 Descending FlightAware ADS-B
Tue 10:49:47 PM 41.6810 -88.3430 52° Northeast 278 320 8,000 -1,091 Descending FlightAware ADS-B
Tue 10:50:17 PM 41.7100 -88.3110 39° Northeast 264 304 7,600 -1,067 Descending FlightAware ADS-B
Tue 10:50:32 PM 41.7290 -88.3090 North 262 302 7,200 -933 Descending FlightAware ADS-B
Tue 10:51:02 PM 41.7650 -88.3090 360° North 257 296 6,900 -327 Descending FlightAware ADS-B
Tue 10:51:27 PM 41.7940 -88.3100 359° North 255 293 6,900  Level FlightAware ADS-B
Tue 10:51:42 PM 41.8120 -88.3100 360° North 254 292 6,900 -133 Level FlightAware ADS-B
Tue 10:52:12 PM 41.8470 -88.3100 360° North 250 288 6,800 -327 Descending FlightAware ADS-B
Tue 10:52:37 PM 41.8720 -88.3100 360° North 231 266 6,600 -764 Descending FlightAware ADS-B
Tue 10:53:07 PM 41.9050 -88.3100 360° North 222 255 6,100 -1,371 Descending FlightAware ADS-B
Tue 10:53:47 PM 41.9410 -88.2930 19° North 222 255 5,000 -1,543 Descending FlightAware ADS-B
Tue 10:54:17 PM 41.9560 -88.2570 61° Northeast 224 258 4,300 -1,200 Descending FlightAware ADS-B
Tue 10:54:42 PM 41.9650 -88.2250 69° East 222 255 3,900 -533 Descending FlightAware ADS-B
Tue 10:55:02 PM 41.9680 -88.1990 81° East 224 258 3,900 -200 Level FlightAware ADS-B
Tue 10:55:42 PM 41.9680 -88.1400 90° East 225 259 3,700 -646 Descending FlightAware ADS-B
Tue 10:56:07 PM 41.9680 -88.1080 90° East 216 249 3,200 -1,200 Descending FlightAware ADS-B
Tue 10:56:37 PM 41.9690 -88.0720 88° East 197 227 2,600 -1,200 Descending FlightAware ADS-B
Tue 10:57:17 PM 41.9690 -88.0290 90° East 164 189 1,800 -1,000 Descending FlightAware ADS-B
Tue 10:57:37 PM 41.9690 -88.0090 90° East 142 163 1,600 -667 Descending FlightAware ADS-B
Tue 10:58:02 PM 41.9690 -87.9870 90° East 130 150 1,300 -667 Descending FlightAware ADS-B
Tue 10:58:22 PM 41.9690 -87.9710 90° East 130 150 1,100 -600 Descending FlightAware ADS-B
Tue 10:58:52 PM 41.9690 -87.9470 90° East 137 158 800 -600 Descending FlightAware ADS-B
Tue 10:59:22 PM 41.9690 -87.9190 90° East 132 152 500 -327 Descending FlightAware ADS-B
Tue 10:59:47 PM 41.9690 -87.9010 90° East 132 152 500  Level FlightAware ADS-B

Login

Don't have an account? Register now (free) for customized features, flight alerts, and more!